createdAt,value
2022-09-17T00:03:20.518Z,99772.66
2022-09-17T00:10:23.171Z,99775.88
2022-09-17T00:17:24.724Z,99789.53
2022-09-17T00:24:26.368Z,99791.00
2022-09-17T00:31:29.507Z,99805.50
2022-09-17T00:38:31.158Z,99806.34
2022-09-17T00:45:32.738Z,99800.84
2022-09-17T00:52:43.406Z,99811.16
2022-09-17T00:59:44.969Z,99824.06
2022-09-17T01:06:59.364Z,99818.16
2022-09-17T01:14:09.169Z,99835.97
2022-09-17T01:21:35.748Z,99825.97
2022-09-17T01:28:40.374Z,99841.44
2022-09-17T01:35:41.851Z,99847.63
2022-09-17T01:43:03.580Z,99854.34
2022-09-17T01:50:10.554Z,99854.75
2022-09-17T01:57:22.966Z,99852.03
2022-09-17T02:04:30.470Z,99857.91
2022-09-17T02:11:34.068Z,99849.56
2022-09-17T02:18:55.585Z,99871.97
2022-09-17T02:26:04.918Z,99869.13
2022-09-17T02:33:07.360Z,99868.50
2022-09-17T02:40:10.506Z,99857.22
2022-09-17T02:47:46.340Z,99870.09
2022-09-17T02:55:10.524Z,99858.69
2022-09-17T03:02:24.314Z,99863.97
2022-09-17T03:09:26.281Z,99863.25
2022-09-17T03:16:27.956Z,99856.44
2022-09-17T03:23:29.586Z,99858.03
2022-09-17T03:30:31.278Z,99861.84
2022-09-17T03:37:33.292Z,99864.31
2022-09-17T03:44:35.055Z,99865.16
2022-09-17T03:51:36.667Z,99872.03
2022-09-17T03:58:38.833Z,99870.56
2022-09-17T04:05:40.439Z,99876.78
2022-09-17T04:12:41.994Z,99882.16
2022-09-17T04:19:44.144Z,99878.22
2022-09-17T04:26:45.697Z,99880.91
2022-09-17T04:33:47.322Z,99879.03
2022-09-17T04:40:48.903Z,99879.03
2022-09-17T04:47:53.281Z,99886.16
2022-09-17T04:54:54.842Z,99888.28
2022-09-17T05:01:56.498Z,99883.97
2022-09-17T05:08:58.176Z,99891.56
2022-09-17T05:15:59.735Z,99904.16
2022-09-17T05:23:01.353Z,99912.75
2022-09-17T05:30:04.155Z,99914.97
2022-09-17T05:37:05.735Z,99916.81
2022-09-17T05:44:07.325Z,99911.16
2022-09-17T05:51:08.878Z,99916.81
2022-09-17T05:58:11.550Z,99922.56
2022-09-17T06:05:13.101Z,99930.56
2022-09-17T06:12:14.650Z,99924.00
2022-09-17T06:19:16.211Z,99942.09
2022-09-17T06:26:17.803Z,99948.25
2022-09-17T06:33:19.559Z,99953.94
2022-09-17T06:40:23.236Z,99949.63
2022-09-17T06:47:25.130Z,99953.31
2022-09-17T06:54:26.756Z,99959.81
2022-09-17T07:01:28.412Z,99959.78
2022-09-17T07:08:32.234Z,99968.91
2022-09-17T07:15:33.813Z,99962.88
2022-09-17T07:22:35.854Z,99969.25
2022-09-17T07:29:37.436Z,99966.78
2022-09-17T07:36:39.070Z,99965.78
2022-09-17T07:43:40.691Z,99963.22
2022-09-17T07:50:42.351Z,99961.84
2022-09-17T07:57:43.949Z,99961.84
2022-09-17T08:04:45.499Z,99968.84
2022-09-17T08:12:02.412Z,99971.69
2022-09-17T08:19:04.041Z,99967.50
2022-09-17T08:26:08.411Z,99976.06
2022-09-17T08:33:09.984Z,99962.16
2022-09-17T08:40:18.400Z,99953.94
2022-09-17T08:47:38.613Z,99956.72
2022-09-17T08:54:45.005Z,99958.06
2022-09-17T09:02:00.939Z,99964.50
2022-09-17T09:09:10.279Z,99961.81
2022-09-17T09:16:23.134Z,99971.97
2022-09-17T09:23:40.793Z,99968.53
2022-09-17T09:30:51.679Z,99979.97
2022-09-17T09:38:12.528Z,99994.16
2022-09-17T09:45:16.432Z,99984.13
2022-09-17T09:52:21.061Z,99990.81
2022-09-17T09:59:22.940Z,100003.84
2022-09-17T10:06:24.548Z,100017.00
2022-09-17T10:13:26.259Z,100012.75
2022-09-17T10:20:27.887Z,100007.88
2022-09-17T10:27:29.449Z,100005.16
2022-09-17T10:34:31.336Z,100018.16
2022-09-17T10:41:32.904Z,100039.09
2022-09-17T10:48:41.910Z,100035.19
2022-09-17T10:56:01.776Z,100027.78
2022-09-17T11:03:21.685Z,100024.03
2022-09-17T11:10:31.033Z,100030.50
2022-09-17T11:17:49.977Z,100022.94
2022-09-17T11:24:51.429Z,100011.75
2022-09-17T11:32:01.531Z,100008.16
2022-09-17T11:39:22.621Z,99994.75
2022-09-17T11:46:25.930Z,100007.56
2022-09-17T11:53:40.835Z,100017.41
2022-09-17T12:00:52.812Z,100016.66
2022-09-17T12:08:26.404Z,100004.63
2022-09-17T12:15:29.825Z,99995.97
2022-09-17T12:22:35.989Z,99992.03
2022-09-17T12:30:01.859Z,100005.19
2022-09-17T12:37:22.129Z,99976.16
2022-09-17T12:44:47.292Z,99970.13
2022-09-17T12:51:53.181Z,99957.59
2022-09-17T12:59:18.182Z,99957.56
2022-09-17T13:06:29.851Z,99965.69
2022-09-17T13:13:41.934Z,99977.94
2022-09-17T13:21:02.707Z,99965.94
2022-09-17T13:28:09.130Z,99955.28
2022-09-17T13:35:13.648Z,99955.47
2022-09-17T13:42:28.848Z,99963.81
2022-09-17T13:49:30.415Z,99948.75
2022-09-17T13:56:46.095Z,99953.25
2022-09-17T14:03:54.088Z,99943.38
2022-09-17T14:10:56.303Z,99937.06
2022-09-17T14:17:58.769Z,99951.34
2022-09-17T14:25:00.315Z,99952.13
2022-09-17T14:32:01.872Z,99945.78
2022-09-17T14:39:03.486Z,99963.66
2022-09-17T14:46:06.003Z,99985.84
2022-09-17T14:53:08.433Z,99982.75
2022-09-17T15:00:18.367Z,99975.78
2022-09-17T15:07:20.659Z,99982.47
2022-09-17T15:14:33.008Z,99977.31
2022-09-17T15:21:44.284Z,99957.63
2022-09-17T15:28:46.000Z,99962.94
2022-09-17T15:36:27.431Z,99978.03
2022-09-17T15:43:30.662Z,99974.75
2022-09-17T15:50:33.918Z,99985.84
2022-09-17T15:57:35.511Z,99976.81
2022-09-17T16:04:38.631Z,99971.78
2022-09-17T16:11:43.882Z,99990.38
2022-09-17T16:18:45.664Z,99991.41
2022-09-17T16:25:47.209Z,99993.81
2022-09-17T16:32:48.817Z,100023.00
2022-09-17T16:39:51.037Z,100012.38
2022-09-17T16:46:52.680Z,100004.66
2022-09-17T16:53:54.283Z,100011.00
2022-09-17T17:00:55.941Z,100008.41
2022-09-17T17:07:57.570Z,100011.19
2022-09-17T17:14:59.229Z,100001.53
2022-09-17T17:22:00.803Z,99990.38
2022-09-17T17:29:02.535Z,99985.88
2022-09-17T17:36:08.188Z,99990.44
2022-09-17T17:43:10.360Z,99986.00
2022-09-17T17:50:11.905Z,99989.84
2022-09-17T17:57:13.458Z,99995.69
2022-09-17T18:04:15.005Z,99993.38
2022-09-17T18:11:16.669Z,100008.75
2022-09-17T18:18:18.235Z,100023.69
2022-09-17T18:25:19.765Z,100033.34
2022-09-17T18:32:21.380Z,100029.22
2022-09-17T18:46:44.712Z,100012.13
2022-09-17T18:53:51.348Z,100029.16
2022-09-17T19:00:53.328Z,100025.22
2022-09-17T19:07:54.955Z,100018.47
2022-09-17T19:14:56.518Z,100032.84
2022-09-17T19:21:58.069Z,100037.16
2022-09-17T19:29:02.693Z,100029.56
2022-09-17T19:36:06.968Z,100022.41
2022-09-17T19:43:08.557Z,100018.50
2022-09-17T19:50:10.126Z,100032.63
2022-09-17T19:57:11.691Z,100025.25
2022-09-17T20:04:13.387Z,100015.88
2022-09-17T20:11:15.433Z,100015.91
2022-09-17T20:18:19.926Z,100013.09
2022-09-17T20:25:25.688Z,100002.75
2022-09-17T20:32:27.406Z,100003.13
2022-09-17T20:39:29.296Z,100009.13
2022-09-17T20:46:31.307Z,100014.06
2022-09-17T20:53:33.888Z,100006.22
2022-09-17T21:00:35.743Z,100009.53
2022-09-17T21:07:37.308Z,100005.94
2022-09-17T21:14:38.994Z,100012.47
2022-09-17T21:21:40.546Z,100013.44
2022-09-17T21:28:43.172Z,100014.56
2022-09-17T21:35:44.865Z,100002.50
2022-09-17T21:42:46.414Z,100007.19
2022-09-17T21:49:48.144Z,100012.84
2022-09-17T21:56:49.722Z,100022.44
2022-09-17T22:03:51.451Z,100020.56
2022-09-17T22:10:53.056Z,100022.44
2022-09-17T22:17:54.646Z,100025.63
2022-09-17T22:24:56.223Z,100014.78
2022-09-17T22:31:57.785Z,100016.88
2022-09-17T22:38:59.380Z,100008.28
2022-09-17T22:46:01.424Z,100012.72
2022-09-17T22:53:02.987Z,100009.38
2022-09-17T23:00:06.102Z,100011.84
2022-09-17T23:07:07.710Z,100004.47
2022-09-17T23:14:11.935Z,100003.25
2022-09-17T23:21:15.184Z,100000.78
2022-09-17T23:28:16.710Z,99996.72
2022-09-17T23:35:18.288Z,100000.53
2022-09-17T23:42:19.837Z,99998.94
2022-09-17T23:49:21.395Z,99999.78
2022-09-17T23:56:25.099Z,100001.97
